createdAt,value
2023-01-09T00:00:49.139Z,4.60
2023-01-09T00:03:34.525Z,4.60
2023-01-09T00:06:20.074Z,4.60
2023-01-09T00:09:06.030Z,4.50
2023-01-09T00:11:52.170Z,4.60
2023-01-09T00:14:37.404Z,4.60
2023-01-09T00:17:22.916Z,4.60
2023-01-09T00:20:09.910Z,4.50
2023-01-09T00:22:57.259Z,4.50
2023-01-09T00:25:42.677Z,4.50
2023-01-09T00:28:30.715Z,4.50
2023-01-09T00:31:17.632Z,4.40
2023-01-09T00:34:10.351Z,4.40
2023-01-09T00:36:56.480Z,4.40
2023-01-09T00:39:42.867Z,4.60
2023-01-09T00:42:33.828Z,4.60
2023-01-09T00:45:28.900Z,4.50
2023-01-09T00:48:25.058Z,4.50
2023-01-09T00:51:10.407Z,4.50
2023-01-09T00:53:58.378Z,4.50
2023-01-09T00:56:43.904Z,4.50
2023-01-09T00:59:29.745Z,4.60
2023-01-09T01:02:17.618Z,4.50
2023-01-09T01:05:21.546Z,4.50
2023-01-09T01:08:15.282Z,4.50
2023-01-09T01:11:06.231Z,4.40
2023-01-09T01:13:52.013Z,4.40
2023-01-09T01:16:37.522Z,4.40
2023-01-09T01:19:27.589Z,4.30
2023-01-09T01:22:12.805Z,4.30
2023-01-09T01:25:01.199Z,4.20
2023-01-09T01:27:47.095Z,4.20
2023-01-09T01:30:33.044Z,4.30
2023-01-09T01:33:21.078Z,4.20
2023-01-09T01:36:12.065Z,4.10
2023-01-09T01:38:57.606Z,4.10
2023-01-09T01:41:43.071Z,4.10
2023-01-09T01:45:01.926Z,4.10
2023-01-09T01:47:56.088Z,4.00
2023-01-09T01:50:51.874Z,4.00
2023-01-09T01:53:42.237Z,4.10
2023-01-09T01:56:36.593Z,4.00
2023-01-09T01:59:36.859Z,4.10
2023-01-09T02:02:32.889Z,4.10
2023-01-09T02:05:19.433Z,4.20
2023-01-09T02:08:07.400Z,4.20
2023-01-09T02:10:56.321Z,4.20
2023-01-09T02:13:42.574Z,4.20
2023-01-09T02:16:28.377Z,4.30
2023-01-09T02:19:40.398Z,4.20
2023-01-09T02:22:52.350Z,4.10
2023-01-09T02:25:56.252Z,4.10
2023-01-09T02:28:56.518Z,4.10
2023-01-09T02:32:01.489Z,4.00
2023-01-09T02:35:06.307Z,4.10
2023-01-09T02:38:23.518Z,4.10
2023-01-09T02:41:26.657Z,4.20
2023-01-09T02:44:13.264Z,4.20
2023-01-09T02:47:03.716Z,4.20
2023-01-09T02:49:55.553Z,4.20
2023-01-09T02:53:05.694Z,4.20
2023-01-09T02:55:57.488Z,4.10
2023-01-09T02:59:01.707Z,4.20
2023-01-09T03:01:56.887Z,4.10
2023-01-09T03:05:01.095Z,4.10
2023-01-09T03:07:55.716Z,4.10
2023-01-09T03:11:04.576Z,4.00
2023-01-09T03:14:00.711Z,4.00
2023-01-09T03:16:48.414Z,4.00
2023-01-09T03:19:35.292Z,3.90
2023-01-09T03:22:21.122Z,3.90
2023-01-09T03:25:09.587Z,4.00
2023-01-09T03:28:01.150Z,4.20
2023-01-09T03:30:48.355Z,4.40
2023-01-09T03:33:33.849Z,4.60
2023-01-09T03:36:21.086Z,4.70
2023-01-09T03:39:06.714Z,4.90
2023-01-09T03:41:55.570Z,5.10
2023-01-09T03:44:40.832Z,5.20
2023-01-09T03:47:26.604Z,5.30
2023-01-09T03:50:12.013Z,5.40
2023-01-09T03:53:00.435Z,5.50
2023-01-09T03:55:47.592Z,5.60
2023-01-09T03:58:33.098Z,5.70
2023-01-09T04:01:18.877Z,5.80
2023-01-09T04:04:04.214Z,5.80
2023-01-09T04:06:49.715Z,5.90
2023-01-09T04:09:38.046Z,5.90
2023-01-09T04:12:26.655Z,6.00
2023-01-09T04:15:12.289Z,6.00
2023-01-09T04:17:57.784Z,6.00
2023-01-09T04:20:46.630Z,6.00
2023-01-09T04:23:32.380Z,6.00
2023-01-09T04:26:17.991Z,6.00
2023-01-09T04:29:05.673Z,6.00
2023-01-09T04:31:51.572Z,6.00
2023-01-09T04:34:40.045Z,6.00
2023-01-09T04:37:25.368Z,6.00
2023-01-09T04:40:12.079Z,6.00
2023-01-09T04:42:57.438Z,6.10
2023-01-09T04:45:43.091Z,6.10
2023-01-09T04:48:28.757Z,6.10
2023-01-09T04:51:14.285Z,6.10
2023-01-09T04:53:59.904Z,6.10
2023-01-09T04:56:45.655Z,6.10
2023-01-09T04:59:31.344Z,6.10
2023-01-09T05:02:16.874Z,6.10
2023-01-09T05:05:05.692Z,6.20
2023-01-09T05:07:51.413Z,6.20
2023-01-09T05:10:37.017Z,6.20
2023-01-09T05:13:22.662Z,6.20
2023-01-09T05:16:10.947Z,6.20
2023-01-09T05:18:57.268Z,6.20
2023-01-09T05:21:45.211Z,6.20
2023-01-09T05:24:38.217Z,6.20
2023-01-09T05:27:24.018Z,6.20
2023-01-09T05:30:10.372Z,6.20
2023-01-09T05:32:56.306Z,6.20
2023-01-09T05:35:41.954Z,6.20
2023-01-09T05:38:27.444Z,6.30
2023-01-09T05:41:13.171Z,6.30
2023-01-09T05:44:00.674Z,6.30
2023-01-09T05:46:45.919Z,6.30
2023-01-09T05:49:33.760Z,6.30
2023-01-09T05:52:19.062Z,6.30
2023-01-09T05:55:05.943Z,6.30
2023-01-09T05:57:53.448Z,6.30
2023-01-09T06:00:38.724Z,6.30
2023-01-09T06:03:24.153Z,6.20
2023-01-09T06:06:12.005Z,6.20
2023-01-09T06:08:57.371Z,6.20
2023-01-09T06:11:43.653Z,6.30
2023-01-09T06:14:31.513Z,6.30
2023-01-09T06:17:19.465Z,6.30
2023-01-09T06:20:05.429Z,6.30
2023-01-09T06:22:52.178Z,6.30
2023-01-09T06:25:39.683Z,6.30
2023-01-09T06:28:25.590Z,6.30
2023-01-09T06:31:11.310Z,6.30
2023-01-09T06:33:57.317Z,6.30
2023-01-09T06:36:45.773Z,6.30
2023-01-09T06:39:31.324Z,6.30
2023-01-09T06:42:22.045Z,6.20
2023-01-09T06:45:08.070Z,6.30
2023-01-09T06:47:53.845Z,6.30
2023-01-09T06:50:39.544Z,6.30
2023-01-09T06:53:25.679Z,6.30
2023-01-09T06:56:10.970Z,6.30
2023-01-09T06:58:56.441Z,6.40
2023-01-09T07:01:42.222Z,6.40
2023-01-09T07:04:28.238Z,6.40
2023-01-09T07:07:18.413Z,6.40
2023-01-09T07:10:04.849Z,6.40
2023-01-09T07:12:53.119Z,6.40
2023-01-09T07:15:39.213Z,6.40
2023-01-09T07:18:25.026Z,6.30
2023-01-09T07:21:10.809Z,6.40
2023-01-09T07:23:56.019Z,6.40
2023-01-09T07:26:43.313Z,6.50
2023-01-09T07:29:29.958Z,6.50
2023-01-09T07:32:15.693Z,6.50
2023-01-09T07:35:03.486Z,6.50
2023-01-09T07:37:51.511Z,6.60
2023-01-09T07:40:36.772Z,6.60
2023-01-09T07:43:24.559Z,6.60
2023-01-09T07:46:10.100Z,6.60
2023-01-09T07:48:56.754Z,6.60
2023-01-09T07:51:43.324Z,6.70
2023-01-09T07:54:29.500Z,6.70
2023-01-09T07:57:17.743Z,6.70
2023-01-09T08:00:06.830Z,6.80
2023-01-09T08:02:53.763Z,6.70
2023-01-09T08:05:43.764Z,6.80
2023-01-09T08:08:29.075Z,6.70
2023-01-09T08:11:19.471Z,6.80
2023-01-09T08:14:07.603Z,6.80
2023-01-09T08:16:55.301Z,6.70
2023-01-09T08:19:40.494Z,6.80
2023-01-09T08:22:26.063Z,6.80
2023-01-09T08:25:13.934Z,6.90
2023-01-09T08:27:59.249Z,6.90
2023-01-09T08:30:45.819Z,6.90
2023-01-09T08:33:33.903Z,7.00
2023-01-09T08:36:19.584Z,7.00
2023-01-09T08:39:07.612Z,7.00
2023-01-09T08:42:11.471Z,7.00
2023-01-09T08:45:15.495Z,7.00
2023-01-09T08:48:01.205Z,7.20
2023-01-09T08:50:47.128Z,7.20
2023-01-09T08:53:32.611Z,7.30
2023-01-09T08:56:20.388Z,7.20
2023-01-09T08:59:06.273Z,7.20
2023-01-09T09:01:52.309Z,7.10
2023-01-09T09:04:38.001Z,7.30
2023-01-09T09:07:26.781Z,7.20
2023-01-09T09:10:12.007Z,7.40
2023-01-09T09:12:59.217Z,7.40
2023-01-09T09:15:47.682Z,7.40
2023-01-09T09:18:37.954Z,7.40
2023-01-09T09:21:23.235Z,7.50
2023-01-09T09:24:08.754Z,7.50
2023-01-09T09:26:55.091Z,7.50
2023-01-09T09:29:40.645Z,7.50
2023-01-09T09:32:26.221Z,7.60
2023-01-09T09:35:12.491Z,7.60
2023-01-09T09:38:01.587Z,7.70
2023-01-09T09:41:30.849Z,7.60
2023-01-09T09:44:53.854Z,7.60
2023-01-09T09:47:43.434Z,7.70
2023-01-09T09:50:50.615Z,7.80
2023-01-09T09:53:43.191Z,7.90
2023-01-09T09:56:34.675Z,8.00
2023-01-09T09:59:26.829Z,8.20
2023-01-09T10:02:29.082Z,8.30
2023-01-09T10:05:48.129Z,8.50
2023-01-09T10:08:57.097Z,8.60
2023-01-09T10:11:46.180Z,8.50
2023-01-09T10:14:31.926Z,8.40
2023-01-09T10:17:28.965Z,8.40
2023-01-09T10:20:36.206Z,8.30
2023-01-09T10:23:47.928Z,8.40
2023-01-09T10:26:47.104Z,8.50
2023-01-09T10:29:43.422Z,8.60
2023-01-09T10:32:39.610Z,8.40
2023-01-09T10:35:46.943Z,8.50
2023-01-09T10:38:38.912Z,8.50
2023-01-09T10:42:11.241Z,8.60
2023-01-09T10:45:21.564Z,8.50
2023-01-09T10:48:37.805Z,8.40
2023-01-09T10:51:39.552Z,8.40
2023-01-09T10:54:25.687Z,8.50
2023-01-09T10:57:21.745Z,8.60
2023-01-09T11:00:08.752Z,8.60
2023-01-09T11:02:55.048Z,8.60
2023-01-09T11:05:41.462Z,8.70
2023-01-09T11:08:31.773Z,8.80
2023-01-09T11:11:47.079Z,8.80
2023-01-09T11:14:32.717Z,8.80
2023-01-09T11:17:21.383Z,8.70
2023-01-09T11:20:18.901Z,8.80
2023-01-09T11:23:04.601Z,8.90
2023-01-09T11:25:57.821Z,8.80
2023-01-09T11:28:42.920Z,8.70
2023-01-09T11:31:29.107Z,8.60
2023-01-09T11:34:18.127Z,8.60
2023-01-09T11:37:18.470Z,8.50
2023-01-09T11:40:04.935Z,8.60
2023-01-09T11:43:16.551Z,8.60
2023-01-09T11:46:11.576Z,8.50
2023-01-09T11:49:03.573Z,8.70
2023-01-09T11:52:13.809Z,8.80
2023-01-09T11:55:04.447Z,8.80
2023-01-09T11:57:53.032Z,8.90
2023-01-09T12:00:51.416Z,9.00
2023-01-09T12:04:04.208Z,8.90
2023-01-09T12:07:11.687Z,8.90
2023-01-09T12:10:13.881Z,9.00
2023-01-09T12:13:34.539Z,9.00
2023-01-09T12:16:42.713Z,9.20
2023-01-09T12:20:16.716Z,9.40
2023-01-09T12:23:20.614Z,9.10
2023-01-09T12:26:20.935Z,9.40
2023-01-09T12:29:06.347Z,9.00
2023-01-09T12:32:09.506Z,8.80
2023-01-09T12:35:04.434Z,8.90
2023-01-09T12:38:07.900Z,8.90
2023-01-09T12:41:12.115Z,8.90
2023-01-09T12:44:34.998Z,9.20
2023-01-09T12:47:27.329Z,9.60
2023-01-09T12:50:33.240Z,9.40
2023-01-09T12:53:34.800Z,9.50
2023-01-09T12:56:45.221Z,9.10
2023-01-09T12:59:53.544Z,9.30
2023-01-09T13:03:12.989Z,9.30
2023-01-09T13:06:01.754Z,9.60
2023-01-09T13:09:01.549Z,9.70
2023-01-09T13:12:12.183Z,9.60
2023-01-09T13:15:15.003Z,9.20
2023-01-09T13:18:07.283Z,9.00
2023-01-09T13:20:56.655Z,8.80
2023-01-09T13:23:59.765Z,8.60
2023-01-09T13:26:53.379Z,8.50
2023-01-09T13:29:43.189Z,8.50
2023-01-09T13:32:48.539Z,8.50
2023-01-09T13:35:47.431Z,8.50
2023-01-09T13:38:38.405Z,8.60
2023-01-09T13:41:47.897Z,8.70
2023-01-09T13:44:34.641Z,8.70
2023-01-09T13:47:28.558Z,8.50
2023-01-09T13:50:26.481Z,10.00
2023-01-09T13:53:18.083Z,11.20
2023-01-09T13:56:05.027Z,11.10
2023-01-09T13:58:59.589Z,10.00
2023-01-09T14:01:47.569Z,9.60
2023-01-09T14:04:45.249Z,9.30
2023-01-09T14:07:35.754Z,9.10
2023-01-09T14:10:24.050Z,8.90
2023-01-09T14:13:21.504Z,8.90
2023-01-09T14:16:11.663Z,8.90
2023-01-09T14:19:05.250Z,8.90
2023-01-09T14:21:58.555Z,8.90
2023-01-09T14:24:47.112Z,8.80
2023-01-09T14:27:55.050Z,8.80
2023-01-09T14:30:52.890Z,8.80
2023-01-09T14:33:38.435Z,8.80
2023-01-09T14:36:29.408Z,8.60
2023-01-09T14:39:16.179Z,8.60
2023-01-09T14:42:09.110Z,8.70
2023-01-09T14:45:03.297Z,8.70
2023-01-09T14:48:00.462Z,8.70
2023-01-09T14:50:55.139Z,8.70
2023-01-09T14:53:41.143Z,8.70
2023-01-09T14:56:30.270Z,8.70
2023-01-09T14:59:17.772Z,8.70
2023-01-09T15:02:03.521Z,8.60
2023-01-09T15:04:49.562Z,8.50
2023-01-09T15:07:41.003Z,8.30
2023-01-09T15:10:33.022Z,8.10
2023-01-09T15:13:32.437Z,7.90
2023-01-09T15:16:21.267Z,7.90
2023-01-09T15:19:08.742Z,7.90
2023-01-09T15:22:04.415Z,7.80
2023-01-09T15:24:50.560Z,7.90
2023-01-09T15:27:47.685Z,7.90
2023-01-09T15:30:35.928Z,8.00
2023-01-09T15:33:21.847Z,8.10
2023-01-09T15:36:20.895Z,8.10
2023-01-09T15:39:09.436Z,8.10
2023-01-09T15:42:14.817Z,8.20
2023-01-09T15:45:02.341Z,8.20
2023-01-09T15:47:48.004Z,8.20
2023-01-09T15:50:33.822Z,8.20
2023-01-09T15:53:25.480Z,8.20
2023-01-09T15:56:31.423Z,8.20
2023-01-09T15:59:27.768Z,8.20
2023-01-09T16:02:33.371Z,8.20
2023-01-09T16:05:20.498Z,8.20
2023-01-09T16:08:15.754Z,8.20
2023-01-09T16:11:08.703Z,8.20
2023-01-09T16:13:58.430Z,8.30
2023-01-09T16:16:44.343Z,8.20
2023-01-09T16:19:45.753Z,8.20
2023-01-09T16:22:33.472Z,8.20
2023-01-09T16:25:31.566Z,8.20
2023-01-09T16:28:27.926Z,8.20
2023-01-09T16:31:26.056Z,8.10
2023-01-09T16:34:13.293Z,7.80
2023-01-09T16:37:02.928Z,7.60
2023-01-09T16:40:21.067Z,7.40
2023-01-09T16:43:16.370Z,7.00
2023-01-09T16:46:04.820Z,6.80
2023-01-09T16:48:51.179Z,6.70
2023-01-09T16:51:36.657Z,6.80
2023-01-09T16:54:22.468Z,6.80
2023-01-09T16:57:11.080Z,6.70
2023-01-09T17:00:00.239Z,6.70
2023-01-09T17:02:46.399Z,6.60
2023-01-09T17:05:32.237Z,6.60
2023-01-09T17:08:22.796Z,6.60
2023-01-09T17:11:19.297Z,6.40
2023-01-09T17:14:06.365Z,6.30
2023-01-09T17:16:54.270Z,6.30
2023-01-09T17:19:40.593Z,6.30
2023-01-09T17:22:28.114Z,6.40
2023-01-09T17:25:33.958Z,6.50
2023-01-09T17:28:35.839Z,6.60
2023-01-09T17:31:21.281Z,6.70
2023-01-09T17:34:06.746Z,6.70
2023-01-09T17:36:55.675Z,6.60
2023-01-09T17:39:41.644Z,6.60
2023-01-09T17:42:29.399Z,6.50
2023-01-09T17:45:17.931Z,6.50
2023-01-09T17:48:05.684Z,6.40
2023-01-09T17:50:54.210Z,6.20
2023-01-09T17:53:40.247Z,6.20
2023-01-09T17:56:32.509Z,6.20
2023-01-09T17:59:23.166Z,6.20
2023-01-09T18:02:16.566Z,6.40
2023-01-09T18:05:02.136Z,6.50
2023-01-09T18:07:48.206Z,6.60
2023-01-09T18:10:33.603Z,6.70
2023-01-09T18:13:19.392Z,6.70
2023-01-09T18:16:09.166Z,6.80
2023-01-09T18:18:59.088Z,6.90
2023-01-09T18:21:46.804Z,7.00
2023-01-09T18:24:32.227Z,7.10
2023-01-09T18:27:17.870Z,7.10
2023-01-09T18:30:06.119Z,7.10
2023-01-09T18:32:51.970Z,7.00
2023-01-09T18:35:38.069Z,7.00
2023-01-09T18:38:23.515Z,6.80
2023-01-09T18:41:09.180Z,6.60
2023-01-09T18:44:00.580Z,6.40
2023-01-09T18:46:47.086Z,6.40
2023-01-09T18:49:32.411Z,6.50
2023-01-09T18:52:17.989Z,6.60
2023-01-09T18:55:04.816Z,6.80
2023-01-09T18:57:52.367Z,6.80
2023-01-09T19:00:38.178Z,6.80
2023-01-09T19:03:23.530Z,6.80
2023-01-09T19:06:09.479Z,6.80
2023-01-09T19:08:57.533Z,6.80
2023-01-09T19:11:45.857Z,6.90
2023-01-09T19:14:31.389Z,7.00
2023-01-09T19:17:19.566Z,7.10
2023-01-09T19:20:06.169Z,7.10
2023-01-09T19:22:51.714Z,7.20
2023-01-09T19:25:39.473Z,7.30
2023-01-09T19:28:29.613Z,7.30
2023-01-09T19:31:15.930Z,7.40
2023-01-09T19:34:02.602Z,7.40
2023-01-09T19:36:48.015Z,7.50
2023-01-09T19:39:33.942Z,7.50
2023-01-09T19:42:19.312Z,7.50
2023-01-09T19:45:06.738Z,7.50
2023-01-09T19:47:52.003Z,7.50
2023-01-09T19:50:38.097Z,7.60
2023-01-09T19:53:26.520Z,7.60
2023-01-09T19:56:19.804Z,7.60
2023-01-09T19:59:06.217Z,7.60
2023-01-09T20:01:51.962Z,7.60
2023-01-09T20:04:38.037Z,7.50
2023-01-09T20:07:23.373Z,7.50
2023-01-09T20:10:09.417Z,7.60
2023-01-09T20:12:54.822Z,7.60
2023-01-09T20:15:40.597Z,7.60
2023-01-09T20:18:28.612Z,7.50
2023-01-09T20:21:22.176Z,7.50
2023-01-09T20:24:11.321Z,7.60
2023-01-09T20:26:56.812Z,7.60
2023-01-09T20:29:42.430Z,7.70
2023-01-09T20:32:29.965Z,7.70
2023-01-09T20:35:15.955Z,7.70
2023-01-09T20:38:04.036Z,7.70
2023-01-09T20:40:50.677Z,7.70
2023-01-09T20:43:38.127Z,7.60
2023-01-09T20:46:27.539Z,7.50
2023-01-09T20:49:14.246Z,7.40
2023-01-09T20:52:03.148Z,7.40
2023-01-09T20:54:48.515Z,7.50
2023-01-09T20:57:34.667Z,7.50
2023-01-09T21:00:20.862Z,7.60
2023-01-09T21:03:06.224Z,7.60
2023-01-09T21:05:51.692Z,7.60
2023-01-09T21:08:37.800Z,7.70
2023-01-09T21:11:28.217Z,7.70
2023-01-09T21:14:13.967Z,7.70
2023-01-09T21:16:59.262Z,7.70
2023-01-09T21:19:45.235Z,7.80
2023-01-09T21:22:35.349Z,7.70
2023-01-09T21:25:21.245Z,7.70
2023-01-09T21:28:08.668Z,7.80
2023-01-09T21:30:56.109Z,7.80
2023-01-09T21:33:41.415Z,7.80
2023-01-09T21:36:31.710Z,7.80
2023-01-09T21:39:19.928Z,7.80
2023-01-09T21:42:24.017Z,7.80
2023-01-09T21:45:36.005Z,7.80
2023-01-09T21:48:24.512Z,7.80
2023-01-09T21:51:09.841Z,7.80
2023-01-09T21:53:58.159Z,7.80
2023-01-09T21:56:43.883Z,7.80
2023-01-09T21:59:29.633Z,7.80
2023-01-09T22:02:17.935Z,7.80
2023-01-09T22:05:03.704Z,7.80
2023-01-09T22:07:49.424Z,7.80
2023-01-09T22:10:35.096Z,7.80
2023-01-09T22:13:20.795Z,7.80
2023-01-09T22:16:09.933Z,7.80
2023-01-09T22:18:56.906Z,7.80
2023-01-09T22:21:42.378Z,7.80
2023-01-09T22:24:33.544Z,7.80
2023-01-09T22:27:19.090Z,7.70
2023-01-09T22:30:05.191Z,7.80
2023-01-09T22:32:50.562Z,7.80
2023-01-09T22:35:35.911Z,7.70
2023-01-09T22:38:21.306Z,7.70
2023-01-09T22:41:06.747Z,7.70
2023-01-09T22:43:53.254Z,7.70
2023-01-09T22:46:41.758Z,7.70
2023-01-09T22:49:30.229Z,7.70
2023-01-09T22:52:19.013Z,7.70
2023-01-09T22:55:05.255Z,7.60
2023-01-09T22:57:50.926Z,7.60
2023-01-09T23:00:36.499Z,7.60
2023-01-09T23:03:25.873Z,7.60
2023-01-09T23:06:14.323Z,7.60
2023-01-09T23:08:59.899Z,7.60
2023-01-09T23:12:03.987Z,7.50
2023-01-09T23:14:51.998Z,7.60
2023-01-09T23:17:38.027Z,7.60
2023-01-09T23:20:26.282Z,7.60
2023-01-09T23:23:14.360Z,7.60
2023-01-09T23:26:03.329Z,7.60
2023-01-09T23:28:48.621Z,7.50
2023-01-09T23:31:34.654Z,7.50
2023-01-09T23:34:29.125Z,7.50
2023-01-09T23:37:14.947Z,7.60
2023-01-09T23:40:02.006Z,7.50
2023-01-09T23:43:06.544Z,7.60
2023-01-09T23:45:55.145Z,7.50
2023-01-09T23:48:41.686Z,7.50
2023-01-09T23:51:30.133Z,7.60
2023-01-09T23:54:16.404Z,7.50
2023-01-09T23:57:04.432Z,7.60
2023-01-09T23:59:49.758Z,7.50
